sensor_id;sensor_type;location;lat;lon;timestamp;temperature;humidity
12413;DHT22;13877;18.896;-99.222;2023-03-14T00:01:17;25.50;21.10
12413;DHT22;13877;18.896;-99.222;2023-03-14T00:03:47;25.30;21.70
12413;DHT22;13877;18.896;-99.222;2023-03-14T00:06:15;25.20;21.90
12413;DHT22;13877;18.896;-99.222;2023-03-14T00:08:43;25.10;22.00
12413;DHT22;13877;18.896;-99.222;2023-03-14T00:11:20;25.00;22.10
12413;DHT22;13877;18.896;-99.222;2023-03-14T00:13:51;24.80;22.30
12413;DHT22;13877;18.896;-99.222;2023-03-14T00:16:19;24.80;22.40
12413;DHT22;13877;18.896;-99.222;2023-03-14T00:18:47;24.80;22.30
12413;DHT22;13877;18.896;-99.222;2023-03-14T00:21:14;24.80;22.30
12413;DHT22;13877;18.896;-99.222;2023-03-14T00:23:42;24.80;22.00
12413;DHT22;13877;18.896;-99.222;2023-03-14T00:26:15;24.80;22.00
12413;DHT22;13877;18.896;-99.222;2023-03-14T00:28:43;24.70;22.10
12413;DHT22;13877;18.896;-99.222;2023-03-14T00:31:12;24.60;22.00
12413;DHT22;13877;18.896;-99.222;2023-03-14T00:33:41;24.60;21.70
12413;DHT22;13877;18.896;-99.222;2023-03-14T00:36:11;24.60;21.60
12413;DHT22;13877;18.896;-99.222;2023-03-14T00:38:39;24.60;21.70
12413;DHT22;13877;18.896;-99.222;2023-03-14T00:41:09;24.50;21.80
12413;DHT22;13877;18.896;-99.222;2023-03-14T00:43:37;24.50;21.70
12413;DHT22;13877;18.896;-99.222;2023-03-14T00:46:04;24.50;21.70
12413;DHT22;13877;18.896;-99.222;2023-03-14T00:48:33;24.60;21.60
12413;DHT22;13877;18.896;-99.222;2023-03-14T00:51:01;24.60;21.20
12413;DHT22;13877;18.896;-99.222;2023-03-14T00:53:28;24.60;21.00
12413;DHT22;13877;18.896;-99.222;2023-03-14T00:55:55;24.60;21.00
12413;DHT22;13877;18.896;-99.222;2023-03-14T00:58:22;24.60;20.90
12413;DHT22;13877;18.896;-99.222;2023-03-14T01:00:49;24.60;21.00
12413;DHT22;13877;18.896;-99.222;2023-03-14T01:03:17;24.50;21.00
12413;DHT22;13877;18.896;-99.222;2023-03-14T01:05:43;24.50;20.80
12413;DHT22;13877;18.896;-99.222;2023-03-14T01:08:11;24.60;20.70
12413;DHT22;13877;18.896;-99.222;2023-03-14T01:10:39;24.60;20.50
12413;DHT22;13877;18.896;-99.222;2023-03-14T01:13:08;24.70;20.40
12413;DHT22;13877;18.896;-99.222;2023-03-14T01:15:37;24.80;20.30
12413;DHT22;13877;18.896;-99.222;2023-03-14T01:18:05;24.80;20.10
12413;DHT22;13877;18.896;-99.222;2023-03-14T01:20:32;24.80;20.10
12413;DHT22;13877;18.896;-99.222;2023-03-14T01:22:59;24.80;20.30
12413;DHT22;13877;18.896;-99.222;2023-03-14T01:25:26;24.80;20.80
12413;DHT22;13877;18.896;-99.222;2023-03-14T01:27:54;24.60;21.30
12413;DHT22;13877;18.896;-99.222;2023-03-14T01:30:21;24.50;21.90
12413;DHT22;13877;18.896;-99.222;2023-03-14T01:32:48;24.30;22.30
12413;DHT22;13877;18.896;-99.222;2023-03-14T01:35:15;24.20;22.80
12413;DHT22;13877;18.896;-99.222;2023-03-14T01:37:43;24.10;23.60
12413;DHT22;13877;18.896;-99.222;2023-03-14T01:40:15;24.10;23.10
12413;DHT22;13877;18.896;-99.222;2023-03-14T01:43:16;24.00;23.20
12413;DHT22;13877;18.896;-99.222;2023-03-14T01:51:30;23.90;23.20
12413;DHT22;13877;18.896;-99.222;2023-03-14T01:54:27;23.90;23.10
12413;DHT22;13877;18.896;-99.222;2023-03-14T01:57:01;24.00;23.00
12413;DHT22;13877;18.896;-99.222;2023-03-14T01:59:31;23.90;23.00
12413;DHT22;13877;18.896;-99.222;2023-03-14T02:01:59;23.90;23.20
12413;DHT22;13877;18.896;-99.222;2023-03-14T02:04:33;23.90;23.20
12413;DHT22;13877;18.896;-99.222;2023-03-14T02:07:19;23.90;23.30
12413;DHT22;13877;18.896;-99.222;2023-03-14T02:10:00;23.90;22.80
12413;DHT22;13877;18.896;-99.222;2023-03-14T02:12:32;24.00;22.50
12413;DHT22;13877;18.896;-99.222;2023-03-14T02:15:17;24.20;22.40
12413;DHT22;13877;18.896;-99.222;2023-03-14T02:18:11;24.30;22.20
12413;DHT22;13877;18.896;-99.222;2023-03-14T02:21:05;24.40;21.90
12413;DHT22;13877;18.896;-99.222;2023-03-14T02:26:32;24.50;21.70
12413;DHT22;13877;18.896;-99.222;2023-03-14T02:29:03;24.60;21.60
12413;DHT22;13877;18.896;-99.222;2023-03-14T02:31:30;24.70;21.20
12413;DHT22;13877;18.896;-99.222;2023-03-14T02:33:59;24.70;21.10
12413;DHT22;13877;18.896;-99.222;2023-03-14T02:36:29;24.70;21.00
12413;DHT22;13877;18.896;-99.222;2023-03-14T02:41:35;24.70;21.00
12413;DHT22;13877;18.896;-99.222;2023-03-14T02:44:05;24.70;20.90
12413;DHT22;13877;18.896;-99.222;2023-03-14T02:46:33;24.70;20.70
12413;DHT22;13877;18.896;-99.222;2023-03-14T02:49:09;24.80;20.50
12413;DHT22;13877;18.896;-99.222;2023-03-14T02:51:38;24.90;20.20
12413;DHT22;13877;18.896;-99.222;2023-03-14T02:54:06;25.00;20.10
12413;DHT22;13877;18.896;-99.222;2023-03-14T02:56:33;24.90;20.20
12413;DHT22;13877;18.896;-99.222;2023-03-14T02:59:05;25.00;20.00
12413;DHT22;13877;18.896;-99.222;2023-03-14T03:01:39;25.00;19.70
12413;DHT22;13877;18.896;-99.222;2023-03-14T03:04:08;25.00;19.60
12413;DHT22;13877;18.896;-99.222;2023-03-14T03:06:34;25.00;19.70
12413;DHT22;13877;18.896;-99.222;2023-03-14T03:09:02;25.00;19.70
12413;DHT22;13877;18.896;-99.222;2023-03-14T03:11:29;24.90;19.80
12413;DHT22;13877;18.896;-99.222;2023-03-14T03:13:56;24.80;19.90
12413;DHT22;13877;18.896;-99.222;2023-03-14T03:16:23;24.50;20.20
12413;DHT22;13877;18.896;-99.222;2023-03-14T03:18:50;24.40;20.60
12413;DHT22;13877;18.896;-99.222;2023-03-14T03:21:20;24.40;20.30
12413;DHT22;13877;18.896;-99.222;2023-03-14T03:23:50;24.70;19.40
12413;DHT22;13877;18.896;-99.222;2023-03-14T03:26:17;24.90;18.60
12413;DHT22;13877;18.896;-99.222;2023-03-14T03:28:44;25.10;18.40
12413;DHT22;13877;18.896;-99.222;2023-03-14T03:31:14;25.00;18.40
12413;DHT22;13877;18.896;-99.222;2023-03-14T03:33:41;25.00;18.60
12413;DHT22;13877;18.896;-99.222;2023-03-14T03:36:09;25.00;18.80
12413;DHT22;13877;18.896;-99.222;2023-03-14T03:38:39;24.90;18.90
12413;DHT22;13877;18.896;-99.222;2023-03-14T03:41:06;24.70;18.90
12413;DHT22;13877;18.896;-99.222;2023-03-14T03:43:33;24.70;19.80
12413;DHT22;13877;18.896;-99.222;2023-03-14T03:46:06;24.10;22.10
12413;DHT22;13877;18.896;-99.222;2023-03-14T03:48:34;23.70;22.90
12413;DHT22;13877;18.896;-99.222;2023-03-14T03:51:04;23.40;23.60
12413;DHT22;13877;18.896;-99.222;2023-03-14T03:53:31;23.10;23.80
12413;DHT22;13877;18.896;-99.222;2023-03-14T03:55:58;22.90;24.10
12413;DHT22;13877;18.896;-99.222;2023-03-14T03:58:25;22.80;24.90
12413;DHT22;13877;18.896;-99.222;2023-03-14T04:00:52;22.70;25.00
12413;DHT22;13877;18.896;-99.222;2023-03-14T04:03:19;22.60;25.40
12413;DHT22;13877;18.896;-99.222;2023-03-14T04:05:57;22.60;25.70
12413;DHT22;13877;18.896;-99.222;2023-03-14T04:08:24;22.80;24.90
12413;DHT22;13877;18.896;-99.222;2023-03-14T04:10:57;22.80;24.90
12413;DHT22;13877;18.896;-99.222;2023-03-14T04:13:42;22.70;24.90
12413;DHT22;13877;18.896;-99.222;2023-03-14T04:16:21;22.50;25.10
12413;DHT22;13877;18.896;-99.222;2023-03-14T04:18:51;22.50;25.60
12413;DHT22;13877;18.896;-99.222;2023-03-14T04:21:21;22.50;25.70
12413;DHT22;13877;18.896;-99.222;2023-03-14T04:23:53;22.50;25.60
12413;DHT22;13877;18.896;-99.222;2023-03-14T04:26:21;22.40;26.70
12413;DHT22;13877;18.896;-99.222;2023-03-14T04:28:48;22.20;27.00
12413;DHT22;13877;18.896;-99.222;2023-03-14T04:31:20;22.00;27.40
12413;DHT22;13877;18.896;-99.222;2023-03-14T04:33:48;21.80;27.70
12413;DHT22;13877;18.896;-99.222;2023-03-14T04:36:20;21.60;28.10
12413;DHT22;13877;18.896;-99.222;2023-03-14T04:38:48;21.50;28.30
12413;DHT22;13877;18.896;-99.222;2023-03-14T04:41:19;21.40;29.00
12413;DHT22;13877;18.896;-99.222;2023-03-14T04:43:46;21.30;28.70
12413;DHT22;13877;18.896;-99.222;2023-03-14T04:46:14;21.30;29.10
12413;DHT22;13877;18.896;-99.222;2023-03-14T04:48:41;21.30;29.00
12413;DHT22;13877;18.896;-99.222;2023-03-14T04:51:08;21.20;29.60
12413;DHT22;13877;18.896;-99.222;2023-03-14T04:53:36;21.10;29.60
12413;DHT22;13877;18.896;-99.222;2023-03-14T04:56:06;21.20;29.10
12413;DHT22;13877;18.896;-99.222;2023-03-14T04:58:37;21.40;28.80
12413;DHT22;13877;18.896;-99.222;2023-03-14T05:01:06;21.50;28.10
12413;DHT22;13877;18.896;-99.222;2023-03-14T05:03:33;21.60;27.90
12413;DHT22;13877;18.896;-99.222;2023-03-14T05:06:34;21.70;27.80
12413;DHT22;13877;18.896;-99.222;2023-03-14T05:09:24;21.80;27.70
12413;DHT22;13877;18.896;-99.222;2023-03-14T05:12:20;21.50;28.30
12413;DHT22;13877;18.896;-99.222;2023-03-14T05:15:04;21.30;28.80
12413;DHT22;13877;18.896;-99.222;2023-03-14T05:17:58;21.00;28.90
12413;DHT22;13877;18.896;-99.222;2023-03-14T05:20:50;20.90;29.20
12413;DHT22;13877;18.896;-99.222;2023-03-14T05:23:24;20.80;29.40
12413;DHT22;13877;18.896;-99.222;2023-03-14T05:26:09;20.80;29.10
12413;DHT22;13877;18.896;-99.222;2023-03-14T05:29:00;20.80;29.30
12413;DHT22;13877;18.896;-99.222;2023-03-14T05:31:37;20.80;30.30
12413;DHT22;13877;18.896;-99.222;2023-03-14T05:34:23;20.70;30.10
12413;DHT22;13877;18.896;-99.222;2023-03-14T05:37:08;20.60;30.40
12413;DHT22;13877;18.896;-99.222;2023-03-14T05:40:14;20.50;30.80
12413;DHT22;13877;18.896;-99.222;2023-03-14T05:42:59;20.50;30.20
12413;DHT22;13877;18.896;-99.222;2023-03-14T05:45:52;20.60;29.80
12413;DHT22;13877;18.896;-99.222;2023-03-14T05:48:49;20.70;29.60
12413;DHT22;13877;18.896;-99.222;2023-03-14T05:51:34;20.80;29.50
12413;DHT22;13877;18.896;-99.222;2023-03-14T05:54:18;20.60;29.70
12413;DHT22;13877;18.896;-99.222;2023-03-14T05:57:08;20.50;30.20
12413;DHT22;13877;18.896;-99.222;2023-03-14T05:59:53;20.50;30.60
12413;DHT22;13877;18.896;-99.222;2023-03-14T06:02:41;20.40;30.70
12413;DHT22;13877;18.896;-99.222;2023-03-14T06:05:18;20.00;31.40
12413;DHT22;13877;18.896;-99.222;2023-03-14T06:07:46;19.90;30.80
12413;DHT22;13877;18.896;-99.222;2023-03-14T06:10:13;20.30;32.30
12413;DHT22;13877;18.896;-99.222;2023-03-14T06:12:41;20.10;32.50
12413;DHT22;13877;18.896;-99.222;2023-03-14T06:15:08;19.80;32.70
12413;DHT22;13877;18.896;-99.222;2023-03-14T06:17:35;19.90;32.10
12413;DHT22;13877;18.896;-99.222;2023-03-14T06:20:08;20.10;32.90
12413;DHT22;13877;18.896;-99.222;2023-03-14T06:22:36;19.70;33.60
12413;DHT22;13877;18.896;-99.222;2023-03-14T06:25:03;19.60;32.70
12413;DHT22;13877;18.896;-99.222;2023-03-14T06:27:30;19.40;33.50
12413;DHT22;13877;18.896;-99.222;2023-03-14T06:29:58;19.30;33.90
12413;DHT22;13877;18.896;-99.222;2023-03-14T06:32:26;19.30;33.60
12413;DHT22;13877;18.896;-99.222;2023-03-14T06:34:57;19.30;33.60
12413;DHT22;13877;18.896;-99.222;2023-03-14T06:37:29;19.20;33.40
12413;DHT22;13877;18.896;-99.222;2023-03-14T06:39:57;19.30;32.90
12413;DHT22;13877;18.896;-99.222;2023-03-14T06:42:47;19.40;33.10
12413;DHT22;13877;18.896;-99.222;2023-03-14T06:45:15;19.40;32.50
12413;DHT22;13877;18.896;-99.222;2023-03-14T06:47:43;19.50;32.70
12413;DHT22;13877;18.896;-99.222;2023-03-14T06:50:11;19.40;32.50
12413;DHT22;13877;18.896;-99.222;2023-03-14T06:52:39;19.30;32.80
12413;DHT22;13877;18.896;-99.222;2023-03-14T06:55:17;19.20;33.00
12413;DHT22;13877;18.896;-99.222;2023-03-14T06:57:44;19.00;33.90
12413;DHT22;13877;18.896;-99.222;2023-03-14T07:00:12;18.80;34.60
12413;DHT22;13877;18.896;-99.222;2023-03-14T07:02:40;18.70;34.90
12413;DHT22;13877;18.896;-99.222;2023-03-14T07:05:11;18.50;35.10
12413;DHT22;13877;18.896;-99.222;2023-03-14T07:07:38;18.30;35.40
12413;DHT22;13877;18.896;-99.222;2023-03-14T07:10:06;18.40;35.70
12413;DHT22;13877;18.896;-99.222;2023-03-14T07:12:35;18.40;35.40
12413;DHT22;13877;18.896;-99.222;2023-03-14T07:15:02;18.50;34.80
12413;DHT22;13877;18.896;-99.222;2023-03-14T07:17:29;18.70;34.20
12413;DHT22;13877;18.896;-99.222;2023-03-14T07:19:57;18.90;33.80
12413;DHT22;13877;18.896;-99.222;2023-03-14T07:22:27;18.90;33.60
12413;DHT22;13877;18.896;-99.222;2023-03-14T07:24:55;19.00;33.80
12413;DHT22;13877;18.896;-99.222;2023-03-14T07:27:23;19.00;33.80
12413;DHT22;13877;18.896;-99.222;2023-03-14T07:29:50;18.90;33.90
12413;DHT22;13877;18.896;-99.222;2023-03-14T07:32:20;19.00;33.60
12413;DHT22;13877;18.896;-99.222;2023-03-14T07:34:48;18.90;34.20
12413;DHT22;13877;18.896;-99.222;2023-03-14T07:37:15;18.90;34.20
12413;DHT22;13877;18.896;-99.222;2023-03-14T07:39:42;18.60;34.50
12413;DHT22;13877;18.896;-99.222;2023-03-14T07:42:16;18.50;35.00
12413;DHT22;13877;18.896;-99.222;2023-03-14T07:45:07;18.50;35.20
12413;DHT22;13877;18.896;-99.222;2023-03-14T07:47:34;18.90;34.40
12413;DHT22;13877;18.896;-99.222;2023-03-14T07:50:01;19.00;34.10
12413;DHT22;13877;18.896;-99.222;2023-03-14T07:52:28;19.00;34.30
12413;DHT22;13877;18.896;-99.222;2023-03-14T07:54:55;19.10;34.70
12413;DHT22;13877;18.896;-99.222;2023-03-14T07:57:22;19.20;34.60
12413;DHT22;13877;18.896;-99.222;2023-03-14T07:59:50;19.20;34.50
12413;DHT22;13877;18.896;-99.222;2023-03-14T08:02:17;19.20;34.00
12413;DHT22;13877;18.896;-99.222;2023-03-14T08:04:46;19.20;34.20
12413;DHT22;13877;18.896;-99.222;2023-03-14T08:07:13;19.20;34.20
12413;DHT22;13877;18.896;-99.222;2023-03-14T08:09:40;19.20;34.20
12413;DHT22;13877;18.896;-99.222;2023-03-14T08:12:08;19.30;34.20
12413;DHT22;13877;18.896;-99.222;2023-03-14T08:14:34;19.30;34.30
12413;DHT22;13877;18.896;-99.222;2023-03-14T08:17:01;19.20;34.50
12413;DHT22;13877;18.896;-99.222;2023-03-14T08:19:28;19.30;34.70
12413;DHT22;13877;18.896;-99.222;2023-03-14T08:21:56;19.30;34.70
12413;DHT22;13877;18.896;-99.222;2023-03-14T08:24:22;19.30;34.60
12413;DHT22;13877;18.896;-99.222;2023-03-14T08:26:49;19.30;34.60
12413;DHT22;13877;18.896;-99.222;2023-03-14T08:29:18;19.30;35.10
12413;DHT22;13877;18.896;-99.222;2023-03-14T08:31:45;19.10;35.30
12413;DHT22;13877;18.896;-99.222;2023-03-14T08:34:12;18.90;35.10
12413;DHT22;13877;18.896;-99.222;2023-03-14T08:36:39;18.90;35.60
12413;DHT22;13877;18.896;-99.222;2023-03-14T08:39:06;18.90;35.40
12413;DHT22;13877;18.896;-99.222;2023-03-14T08:41:34;18.70;34.80
12413;DHT22;13877;18.896;-99.222;2023-03-14T08:44:07;18.80;34.50
12413;DHT22;13877;18.896;-99.222;2023-03-14T08:46:34;18.90;33.80
12413;DHT22;13877;18.896;-99.222;2023-03-14T08:49:01;19.00;33.30
12413;DHT22;13877;18.896;-99.222;2023-03-14T08:51:28;18.90;33.40
12413;DHT22;13877;18.896;-99.222;2023-03-14T08:53:55;18.90;34.00
12413;DHT22;13877;18.896;-99.222;2023-03-14T08:56:22;18.80;33.30
12413;DHT22;13877;18.896;-99.222;2023-03-14T08:58:50;18.70;33.40
12413;DHT22;13877;18.896;-99.222;2023-03-14T09:01:17;18.60;32.90
12413;DHT22;13877;18.896;-99.222;2023-03-14T09:03:45;18.70;32.90
12413;DHT22;13877;18.896;-99.222;2023-03-14T09:06:14;18.70;33.00
12413;DHT22;13877;18.896;-99.222;2023-03-14T09:08:44;18.70;33.20
12413;DHT22;13877;18.896;-99.222;2023-03-14T09:11:12;18.60;32.90
12413;DHT22;13877;18.896;-99.222;2023-03-14T09:13:40;18.60;33.00
12413;DHT22;13877;18.896;-99.222;2023-03-14T09:16:07;18.70;32.60
12413;DHT22;13877;18.896;-99.222;2023-03-14T09:18:35;18.70;32.30
12413;DHT22;13877;18.896;-99.222;2023-03-14T09:21:02;18.70;32.50
12413;DHT22;13877;18.896;-99.222;2023-03-14T09:23:29;18.60;33.00
12413;DHT22;13877;18.896;-99.222;2023-03-14T09:25:57;18.60;33.10
12413;DHT22;13877;18.896;-99.222;2023-03-14T09:28:25;18.60;33.20
12413;DHT22;13877;18.896;-99.222;2023-03-14T09:30:52;18.50;33.30
12413;DHT22;13877;18.896;-99.222;2023-03-14T09:33:19;18.40;33.30
12413;DHT22;13877;18.896;-99.222;2023-03-14T09:35:46;18.40;33.30
12413;DHT22;13877;18.896;-99.222;2023-03-14T09:38:13;18.60;33.10
12413;DHT22;13877;18.896;-99.222;2023-03-14T09:40:40;18.70;33.00
12413;DHT22;13877;18.896;-99.222;2023-03-14T09:43:13;18.80;32.80
12413;DHT22;13877;18.896;-99.222;2023-03-14T09:45:42;18.80;33.10
12413;DHT22;13877;18.896;-99.222;2023-03-14T09:48:32;18.90;33.40
12413;DHT22;13877;18.896;-99.222;2023-03-14T09:51:13;18.70;33.80
12413;DHT22;13877;18.896;-99.222;2023-03-14T09:53:43;18.60;34.50
12413;DHT22;13877;18.896;-99.222;2023-03-14T09:56:20;18.70;33.60
12413;DHT22;13877;18.896;-99.222;2023-03-14T09:59:00;18.60;33.10
12413;DHT22;13877;18.896;-99.222;2023-03-14T10:01:29;18.50;33.10
12413;DHT22;13877;18.896;-99.222;2023-03-14T10:04:02;18.50;32.60
12413;DHT22;13877;18.896;-99.222;2023-03-14T10:06:31;18.50;32.30
12413;DHT22;13877;18.896;-99.222;2023-03-14T10:08:57;18.60;32.30
12413;DHT22;13877;18.896;-99.222;2023-03-14T10:11:25;18.60;31.80
12413;DHT22;13877;18.896;-99.222;2023-03-14T10:16:34;18.70;31.20
12413;DHT22;13877;18.896;-99.222;2023-03-14T10:19:09;18.70;31.40
12413;DHT22;13877;18.896;-99.222;2023-03-14T10:21:41;18.80;31.30
12413;DHT22;13877;18.896;-99.222;2023-03-14T10:24:30;18.80;30.90
12413;DHT22;13877;18.896;-99.222;2023-03-14T10:27:02;18.80;30.90
12413;DHT22;13877;18.896;-99.222;2023-03-14T10:29:32;18.70;30.80
12413;DHT22;13877;18.896;-99.222;2023-03-14T10:32:04;18.80;30.50
12413;DHT22;13877;18.896;-99.222;2023-03-14T10:34:36;18.70;30.50
12413;DHT22;13877;18.896;-99.222;2023-03-14T10:37:20;18.70;30.30
12413;DHT22;13877;18.896;-99.222;2023-03-14T10:39:51;18.80;30.10
12413;DHT22;13877;18.896;-99.222;2023-03-14T10:42:28;18.80;30.00
12413;DHT22;13877;18.896;-99.222;2023-03-14T10:44:58;18.80;29.90
12413;DHT22;13877;18.896;-99.222;2023-03-14T10:47:28;18.80;30.00
12413;DHT22;13877;18.896;-99.222;2023-03-14T10:49:56;18.70;30.00
12413;DHT22;13877;18.896;-99.222;2023-03-14T10:52:27;18.70;30.10
12413;DHT22;13877;18.896;-99.222;2023-03-14T10:55:10;18.60;30.10
12413;DHT22;13877;18.896;-99.222;2023-03-14T10:57:42;18.60;30.20
12413;DHT22;13877;18.896;-99.222;2023-03-14T11:00:29;18.60;30.40
12413;DHT22;13877;18.896;-99.222;2023-03-14T11:03:08;18.60;30.60
12413;DHT22;13877;18.896;-99.222;2023-03-14T11:06:27;18.50;30.50
12413;DHT22;13877;18.896;-99.222;2023-03-14T11:11:45;18.10;31.80
12413;DHT22;13877;18.896;-99.222;2023-03-14T11:14:36;18.10;31.80
12413;DHT22;13877;18.896;-99.222;2023-03-14T11:23:18;18.20;31.50
12413;DHT22;13877;18.896;-99.222;2023-03-14T11:25:55;18.30;31.20
12413;DHT22;13877;18.896;-99.222;2023-03-14T11:31:14;18.40;31.40
12413;DHT22;13877;18.896;-99.222;2023-03-14T11:36:59;18.30;31.40
12413;DHT22;13877;18.896;-99.222;2023-03-14T11:39:41;18.30;31.30
12413;DHT22;13877;18.896;-99.222;2023-03-14T11:42:11;18.30;31.40
12413;DHT22;13877;18.896;-99.222;2023-03-14T11:44:39;18.30;31.70
12413;DHT22;13877;18.896;-99.222;2023-03-14T11:47:15;18.30;31.50
12413;DHT22;13877;18.896;-99.222;2023-03-14T11:50:15;18.30;31.60
12413;DHT22;13877;18.896;-99.222;2023-03-14T11:53:11;18.40;31.10
12413;DHT22;13877;18.896;-99.222;2023-03-14T11:55:37;18.50;30.80
12413;DHT22;13877;18.896;-99.222;2023-03-14T11:58:26;18.60;30.70
12413;DHT22;13877;18.896;-99.222;2023-03-14T12:00:55;18.60;30.20
12413;DHT22;13877;18.896;-99.222;2023-03-14T12:06:39;18.50;30.20
12413;DHT22;13877;18.896;-99.222;2023-03-14T12:09:09;18.60;30.10
12413;DHT22;13877;18.896;-99.222;2023-03-14T12:12:02;18.50;30.40
12413;DHT22;13877;18.896;-99.222;2023-03-14T12:14:35;18.50;30.40
12413;DHT22;13877;18.896;-99.222;2023-03-14T12:17:24;18.40;30.60
12413;DHT22;13877;18.896;-99.222;2023-03-14T12:20:18;18.50;30.50
12413;DHT22;13877;18.896;-99.222;2023-03-14T12:22:56;18.40;30.40
12413;DHT22;13877;18.896;-99.222;2023-03-14T12:25:32;18.40;30.50
12413;DHT22;13877;18.896;-99.222;2023-03-14T12:30:40;18.40;30.40
12413;DHT22;13877;18.896;-99.222;2023-03-14T12:35:49;18.40;30.40
12413;DHT22;13877;18.896;-99.222;2023-03-14T12:41:23;18.30;30.50
12413;DHT22;13877;18.896;-99.222;2023-03-14T12:43:51;18.40;30.30
12413;DHT22;13877;18.896;-99.222;2023-03-14T12:51:35;18.30;30.80
12413;DHT22;13877;18.896;-99.222;2023-03-14T13:00:13;18.20;31.80
12413;DHT22;13877;18.896;-99.222;2023-03-14T13:02:38;18.30;32.10
12413;DHT22;13877;18.896;-99.222;2023-03-14T13:05:24;18.30;32.40
12413;DHT22;13877;18.896;-99.222;2023-03-14T13:10:30;18.30;33.30
12413;DHT22;13877;18.896;-99.222;2023-03-14T13:13:21;18.30;33.50
12413;DHT22;13877;18.896;-99.222;2023-03-14T13:15:58;18.30;34.00
12413;DHT22;13877;18.896;-99.222;2023-03-14T13:18:41;18.30;34.10
12413;DHT22;13877;18.896;-99.222;2023-03-14T13:21:21;18.30;34.00
12413;DHT22;13877;18.896;-99.222;2023-03-14T13:24:00;18.30;34.00
12413;DHT22;13877;18.896;-99.222;2023-03-14T13:26:42;18.40;33.90
12413;DHT22;13877;18.896;-99.222;2023-03-14T13:29:35;18.50;33.60
12413;DHT22;13877;18.896;-99.222;2023-03-14T13:32:17;18.60;33.30
12413;DHT22;13877;18.896;-99.222;2023-03-14T13:34:46;18.70;33.30
12413;DHT22;13877;18.896;-99.222;2023-03-14T13:37:21;18.80;33.00
12413;DHT22;13877;18.896;-99.222;2023-03-14T13:39:56;19.00;32.80
12413;DHT22;13877;18.896;-99.222;2023-03-14T13:42:28;19.00;32.90
12413;DHT22;13877;18.896;-99.222;2023-03-14T13:44:56;19.10;32.80
12413;DHT22;13877;18.896;-99.222;2023-03-14T13:47:25;19.20;33.40
12413;DHT22;13877;18.896;-99.222;2023-03-14T13:49:53;19.30;33.30
12413;DHT22;13877;18.896;-99.222;2023-03-14T13:52:40;19.30;35.00
12413;DHT22;13877;18.896;-99.222;2023-03-14T13:55:17;19.40;35.30
12413;DHT22;13877;18.896;-99.222;2023-03-14T14:00:19;19.40;35.70
12413;DHT22;13877;18.896;-99.222;2023-03-14T14:02:48;19.40;36.30
12413;DHT22;13877;18.896;-99.222;2023-03-14T14:05:15;19.40;36.20
12413;DHT22;13877;18.896;-99.222;2023-03-14T14:07:43;19.70;36.70
12413;DHT22;13877;18.896;-99.222;2023-03-14T14:10:13;19.90;36.30
12413;DHT22;13877;18.896;-99.222;2023-03-14T14:12:50;20.20;36.20
12413;DHT22;13877;18.896;-99.222;2023-03-14T14:15:27;20.40;36.10
12413;DHT22;13877;18.896;-99.222;2023-03-14T14:17:57;20.70;36.30
12413;DHT22;13877;18.896;-99.222;2023-03-14T14:20:34;20.80;36.40
12413;DHT22;13877;18.896;-99.222;2023-03-14T14:23:04;21.00;35.90
12413;DHT22;13877;18.896;-99.222;2023-03-14T14:25:32;20.90;36.10
12413;DHT22;13877;18.896;-99.222;2023-03-14T14:28:37;21.20;36.70
12413;DHT22;13877;18.896;-99.222;2023-03-14T14:33:46;21.90;36.40
12413;DHT22;13877;18.896;-99.222;2023-03-14T14:36:30;22.10;35.60
12413;DHT22;13877;18.896;-99.222;2023-03-14T14:39:05;22.30;35.10
12413;DHT22;13877;18.896;-99.222;2023-03-14T14:41:35;22.60;34.40
12413;DHT22;13877;18.896;-99.222;2023-03-14T14:44:05;22.80;33.70
12413;DHT22;13877;18.896;-99.222;2023-03-14T14:46:35;23.00;32.60
12413;DHT22;13877;18.896;-99.222;2023-03-14T14:49:05;23.20;32.60
12413;DHT22;13877;18.896;-99.222;2023-03-14T14:51:40;23.30;32.80
12413;DHT22;13877;18.896;-99.222;2023-03-14T14:54:14;23.50;31.90
12413;DHT22;13877;18.896;-99.222;2023-03-14T14:56:50;24.10;31.70
12413;DHT22;13877;18.896;-99.222;2023-03-14T14:59:26;24.50;30.10
12413;DHT22;13877;18.896;-99.222;2023-03-14T15:02:00;24.80;30.20
12413;DHT22;13877;18.896;-99.222;2023-03-14T15:04:30;24.70;29.80
12413;DHT22;13877;18.896;-99.222;2023-03-14T15:06:57;24.60;30.20
12413;DHT22;13877;18.896;-99.222;2023-03-14T15:09:24;24.50;30.40
12413;DHT22;13877;18.896;-99.222;2023-03-14T15:11:51;24.50;30.00
12413;DHT22;13877;18.896;-99.222;2023-03-14T15:14:18;24.60;30.40
12413;DHT22;13877;18.896;-99.222;2023-03-14T15:16:45;24.60;29.30
12413;DHT22;13877;18.896;-99.222;2023-03-14T15:19:23;24.80;29.80
12413;DHT22;13877;18.896;-99.222;2023-03-14T15:21:54;24.60;29.30
12413;DHT22;13877;18.896;-99.222;2023-03-14T15:24:22;24.40;29.80
12413;DHT22;13877;18.896;-99.222;2023-03-14T15:26:50;24.90;29.10
12413;DHT22;13877;18.896;-99.222;2023-03-14T15:29:17;25.00;29.00
12413;DHT22;13877;18.896;-99.222;2023-03-14T15:31:44;25.20;29.30
12413;DHT22;13877;18.896;-99.222;2023-03-14T15:34:12;25.70;29.00
12413;DHT22;13877;18.896;-99.222;2023-03-14T15:36:38;25.80;28.50
12413;DHT22;13877;18.896;-99.222;2023-03-14T15:39:07;26.50;27.80
12413;DHT22;13877;18.896;-99.222;2023-03-14T15:41:34;26.80;27.50
12413;DHT22;13877;18.896;-99.222;2023-03-14T15:44:01;26.60;28.00
12413;DHT22;13877;18.896;-99.222;2023-03-14T15:46:28;26.90;28.10
12413;DHT22;13877;18.896;-99.222;2023-03-14T15:49:04;27.00;28.40
12413;DHT22;13877;18.896;-99.222;2023-03-14T15:51:31;26.40;28.80
12413;DHT22;13877;18.896;-99.222;2023-03-14T15:53:58;26.80;28.50
12413;DHT22;13877;18.896;-99.222;2023-03-14T15:56:25;27.00;29.50
12413;DHT22;13877;18.896;-99.222;2023-03-14T15:58:57;26.80;30.40
12413;DHT22;13877;18.896;-99.222;2023-03-14T16:01:24;26.90;30.40
12413;DHT22;13877;18.896;-99.222;2023-03-14T16:03:52;26.60;30.90
12413;DHT22;13877;18.896;-99.222;2023-03-14T16:06:19;26.80;31.50
12413;DHT22;13877;18.896;-99.222;2023-03-14T16:08:46;26.50;32.90
12413;DHT22;13877;18.896;-99.222;2023-03-14T16:11:14;26.60;32.30
12413;DHT22;13877;18.896;-99.222;2023-03-14T16:13:41;26.70;32.00
12413;DHT22;13877;18.896;-99.222;2023-03-14T16:16:08;26.70;31.60
12413;DHT22;13877;18.896;-99.222;2023-03-14T16:18:36;26.50;31.80
12413;DHT22;13877;18.896;-99.222;2023-03-14T16:21:10;26.70;32.00
12413;DHT22;13877;18.896;-99.222;2023-03-14T16:23:38;26.30;32.80
12413;DHT22;13877;18.896;-99.222;2023-03-14T16:26:17;26.70;32.40
12413;DHT22;13877;18.896;-99.222;2023-03-14T16:28:46;27.60;30.10
12413;DHT22;13877;18.896;-99.222;2023-03-14T16:31:15;27.50;30.20
12413;DHT22;13877;18.896;-99.222;2023-03-14T16:33:44;27.20;30.00